Portada
METAR-TAF:

METAR-TAF

Aeroports :

Dammam, Aràbia Saudita

latitud: 26-28N, longitud: 049-47E, altitud: 22 m

Observació

L'informe es va fer fa 38 minuts, a les 02:00 UTC
Vent 3 kt del Oest/Sud-Oest
Temperatura 29°C
Humitat 62%
Pressió 1003 hPa
Visibilitat 10 km o més
sense núvols per sota de 1500 mi sense presència de cumulonimbus.

METAR: OEDF 210200Z 24003KT CAVOK 29/21 Q1003 NOSIG

Hora: 05:38 (02:38 UTC)

Pronòstic

L'informe es va fer fa 5 hores i 43 minuts, a les 20:55 UTC
Pronòstic vàlid del 21 a les 00 UTC al 22 a les 06 UTC
Vent 5 kt amb direcció variable
Visibilitat: 8000 m
Probabilitat 30% :
Temporalment
l' 21 a les 00 UTC al 21 a les 04 UTC
Visibilitat: 5000 m
calitja
Evolucionant progressivament
l' 21 a les 09 UTC al 21 a les 11 UTC
Vent 12 kt del Est

TAF: OEDF 202055Z 2100/2206 VRB05KT 8000 NSC PROB30 TEMPO 2100/2104 5000 HZ BECMG 2109/2111 08012KT

Observacions i pronòstics meteorològics de més de 4000 aeroports (METAR i TAF).

Les estacions disponibles són els punts grocs i vermells al mapa.

Posi el ratolí al punt desitjat per veure el nom de l'estació.

Feu clic per veure les observacions i els pronòstics meteorològics.

Per canviar el mapa: feu clic els botons verds amb una creu de color negre per apropar; al botó verd amb un guió per allunyar la imatge; o en les fletxes verdes per a mapes adjacents.


METAR-TAF: